createdAt,value
2023-04-17T00:00:34.062Z,58.20
2023-04-17T00:03:01.683Z,58.30
2023-04-17T00:05:31.757Z,58.50
2023-04-17T00:08:00.087Z,58.30
2023-04-17T00:10:27.167Z,58.20
2023-04-17T00:12:54.625Z,59.00
2023-04-17T00:15:21.931Z,59.20
2023-04-17T00:17:48.930Z,59.20
2023-04-17T00:20:15.983Z,59.10
2023-04-17T00:22:43.061Z,59.00
2023-04-17T00:25:14.847Z,58.70
2023-04-17T00:27:42.899Z,58.40
2023-04-17T00:30:10.678Z,58.80
2023-04-17T00:32:38.032Z,58.50
2023-04-17T00:35:05.619Z,58.70
2023-04-17T00:37:32.556Z,58.70
2023-04-17T00:39:59.453Z,58.50
2023-04-17T00:42:27.071Z,59.00
2023-04-17T00:44:54.516Z,59.00
2023-04-17T00:47:22.730Z,59.20
2023-04-17T00:49:51.554Z,58.70
2023-04-17T00:52:28.883Z,59.00
2023-04-17T00:54:56.400Z,58.70
2023-04-17T00:57:24.405Z,58.80
2023-04-17T00:59:51.577Z,58.90
2023-04-17T01:02:19.064Z,59.10
2023-04-17T01:04:46.433Z,59.00
2023-04-17T01:07:13.515Z,59.70
2023-04-17T01:09:41.077Z,59.30
2023-04-17T01:12:19.997Z,59.20
2023-04-17T01:14:49.344Z,59.20
2023-04-17T01:17:18.935Z,59.70
2023-04-17T01:19:46.454Z,59.50
2023-04-17T01:22:13.632Z,59.20
2023-04-17T01:24:41.019Z,59.90
2023-04-17T01:27:08.252Z,60.00
2023-04-17T01:29:35.867Z,59.70
2023-04-17T01:32:03.001Z,59.50
2023-04-17T01:34:30.020Z,59.40
2023-04-17T01:36:56.978Z,59.10
2023-04-17T01:39:24.004Z,59.00
2023-04-17T01:41:51.993Z,59.10
2023-04-17T01:44:19.193Z,58.70
2023-04-17T01:46:47.672Z,59.40
2023-04-17T01:49:15.844Z,58.70
2023-04-17T01:51:43.204Z,59.40
2023-04-17T01:54:10.268Z,59.50
2023-04-17T01:56:37.352Z,58.90
2023-04-17T01:59:04.432Z,58.70
2023-04-17T02:01:31.865Z,59.10
2023-04-17T02:03:59.209Z,59.30
2023-04-17T02:06:27.423Z,59.30
2023-04-17T02:08:54.425Z,58.90
2023-04-17T02:11:21.449Z,59.30
2023-04-17T02:13:51.173Z,59.20
2023-04-17T02:16:21.772Z,59.30
2023-04-17T02:18:50.225Z,59.10
2023-04-17T02:21:17.261Z,59.10
2023-04-17T02:23:44.599Z,59.40
2023-04-17T02:26:11.719Z,59.20
2023-04-17T02:28:39.227Z,59.00
2023-04-17T02:31:08.476Z,59.00
2023-04-17T02:33:36.840Z,59.00
2023-04-17T02:36:07.528Z,58.70
2023-04-17T02:38:40.831Z,59.00
2023-04-17T02:41:07.886Z,58.80
2023-04-17T02:43:35.173Z,58.70
2023-04-17T02:46:02.221Z,58.30
2023-04-17T02:48:29.305Z,58.70
2023-04-17T02:50:56.532Z,57.70
2023-04-17T02:53:23.554Z,59.20
2023-04-17T02:55:50.594Z,59.20
2023-04-17T02:58:20.601Z,59.00
2023-04-17T03:00:47.757Z,59.00
2023-04-17T03:03:17.794Z,58.90
2023-04-17T03:05:44.937Z,58.80
2023-04-17T03:08:12.194Z,58.80
2023-04-17T03:10:47.726Z,58.80
2023-04-17T03:13:14.771Z,58.70
2023-04-17T03:15:41.697Z,58.70
2023-04-17T03:18:08.797Z,58.00
2023-04-17T03:20:36.162Z,57.70
2023-04-17T03:23:03.111Z,59.90
2023-04-17T03:25:30.081Z,59.90
2023-04-17T03:27:57.131Z,59.60
2023-04-17T03:30:30.132Z,59.70
2023-04-17T03:33:00.707Z,59.70
2023-04-17T03:35:30.161Z,59.50
2023-04-17T03:37:57.153Z,58.60
2023-04-17T03:40:24.444Z,58.70
2023-04-17T03:42:51.461Z,59.00
2023-04-17T03:45:18.525Z,59.00
2023-04-17T03:47:45.693Z,59.00
2023-04-17T03:50:12.771Z,58.60
2023-04-17T03:52:47.166Z,58.50
2023-04-17T03:55:16.942Z,58.40
2023-04-17T03:57:45.778Z,59.10
2023-04-17T04:00:14.013Z,59.90
2023-04-17T04:02:49.746Z,60.00
2023-04-17T04:05:21.852Z,60.00
2023-04-17T04:07:48.849Z,60.00
2023-04-17T04:10:23.534Z,59.70
2023-04-17T04:12:50.765Z,59.20
2023-04-17T04:15:18.150Z,59.40
2023-04-17T04:17:49.262Z,59.00
2023-04-17T04:20:16.381Z,59.30
2023-04-17T04:22:44.726Z,59.40
2023-04-17T04:25:12.386Z,59.40
2023-04-17T04:27:50.069Z,59.50
2023-04-17T04:30:25.871Z,59.10
2023-04-17T04:33:01.195Z,58.90
2023-04-17T04:35:30.273Z,59.60
2023-04-17T04:38:02.160Z,59.60
2023-04-17T04:40:38.222Z,58.80
2023-04-17T04:43:06.850Z,59.60
2023-04-17T04:45:41.351Z,60.10
2023-04-17T04:48:08.420Z,59.90
2023-04-17T04:50:35.516Z,60.00
2023-04-17T04:53:02.590Z,59.90
2023-04-17T04:55:43.102Z,59.40
2023-04-17T04:58:10.030Z,59.20
2023-04-17T05:00:39.688Z,60.70
2023-04-17T05:03:09.830Z,60.70
2023-04-17T05:05:37.809Z,61.60
2023-04-17T05:08:05.606Z,60.60
2023-04-17T05:10:34.908Z,60.10
2023-04-17T05:13:04.552Z,60.80
2023-04-17T05:15:32.250Z,61.50
2023-04-17T05:18:00.241Z,61.30
2023-04-17T05:20:30.118Z,61.50
2023-04-17T05:22:58.653Z,61.70
2023-04-17T05:25:25.760Z,62.40
2023-04-17T05:27:54.947Z,62.50
2023-04-17T05:30:22.272Z,62.70
2023-04-17T05:32:56.098Z,62.30
2023-04-17T05:35:32.331Z,61.70
2023-04-17T05:37:59.996Z,61.20
2023-04-17T05:40:26.951Z,60.00
2023-04-17T05:42:53.877Z,60.10
2023-04-17T05:45:22.214Z,59.60
2023-04-17T05:47:50.603Z,60.60
2023-04-17T05:50:17.745Z,60.60
2023-04-17T05:52:48.300Z,60.20
2023-04-17T05:55:16.761Z,59.90
2023-04-17T05:57:43.864Z,59.90
2023-04-17T06:00:13.069Z,61.00
2023-04-17T06:02:48.815Z,61.30
2023-04-17T06:05:25.036Z,61.10
2023-04-17T06:07:52.516Z,60.90
2023-04-17T06:30:35.927Z,58.70
2023-04-17T06:33:04.389Z,59.80
2023-04-17T06:35:33.926Z,59.40
2023-04-17T06:38:10.767Z,58.10
2023-04-17T06:40:38.589Z,59.20
2023-04-17T06:43:06.978Z,59.60
2023-04-17T06:45:38.359Z,59.40
2023-04-17T06:48:06.752Z,59.90
2023-04-17T06:50:33.770Z,58.90
2023-04-17T06:53:00.852Z,58.40
2023-04-17T06:55:27.948Z,59.20
2023-04-17T06:57:54.929Z,59.30
2023-04-17T07:00:22.406Z,60.00
2023-04-17T07:02:50.864Z,59.20
2023-04-17T07:05:17.892Z,59.30
2023-04-17T12:02:15.274Z,57.00
2023-04-17T12:04:42.831Z,55.20
2023-04-17T12:07:23.785Z,55.90
2023-04-17T12:09:57.897Z,55.30
2023-04-17T12:12:24.986Z,55.90
2023-04-17T12:14:51.888Z,56.10
2023-04-17T12:17:18.842Z,56.70
2023-04-17T12:19:45.840Z,55.20
2023-04-17T12:22:12.901Z,55.30
2023-04-17T12:24:39.791Z,55.40
2023-04-17T12:27:06.769Z,55.30
2023-04-17T12:29:43.808Z,55.10
2023-04-17T12:32:11.948Z,55.80
2023-04-17T12:34:38.951Z,55.40
2023-04-17T12:37:05.940Z,55.20
2023-04-17T12:39:33.339Z,54.00
2023-04-17T12:42:00.412Z,54.90
2023-04-17T12:44:27.422Z,55.70
2023-04-17T12:46:54.394Z,55.40
2023-04-17T12:49:23.521Z,55.50
2023-04-17T12:51:51.550Z,54.90
2023-04-17T12:54:18.886Z,54.90
2023-04-17T12:56:45.923Z,55.60
2023-04-17T12:59:12.846Z,55.30
2023-04-17T13:01:39.934Z,54.70
2023-04-17T13:04:07.320Z,54.60
2023-04-17T13:06:34.821Z,55.20
2023-04-17T13:09:01.968Z,55.40
2023-04-17T13:11:28.984Z,55.70
2023-04-17T13:13:55.952Z,55.10
2023-04-17T13:16:22.931Z,54.90
2023-04-17T13:18:49.837Z,55.80
2023-04-17T13:21:16.770Z,55.60
2023-04-17T13:23:43.736Z,55.20
2023-04-17T13:26:10.705Z,55.30
2023-04-17T13:28:37.621Z,55.50
2023-04-17T13:31:05.034Z,55.30
2023-04-17T13:33:32.087Z,54.80
2023-04-17T13:35:59.004Z,54.80
2023-04-17T13:38:25.949Z,54.90
2023-04-17T13:40:52.836Z,53.40
2023-04-17T13:43:19.888Z,54.80
2023-04-17T13:45:46.938Z,54.90
2023-04-17T13:48:14.305Z,54.30
2023-04-17T13:50:42.689Z,54.30
2023-04-17T13:53:11.091Z,53.90
2023-04-17T13:55:38.190Z,53.40
2023-04-17T13:58:05.265Z,54.50
2023-04-17T14:00:32.188Z,54.50
2023-04-17T14:03:00.762Z,53.80
2023-04-17T14:05:28.047Z,55.00
2023-04-17T14:07:54.986Z,55.00
2023-04-17T14:10:21.900Z,54.30
2023-04-17T14:12:49.040Z,53.60
2023-04-17T14:15:16.304Z,54.10
2023-04-17T14:17:43.484Z,54.20
2023-04-17T14:20:11.501Z,54.30
2023-04-17T14:22:38.521Z,54.10
2023-04-17T14:25:06.065Z,54.30
2023-04-17T14:27:34.346Z,53.60
2023-04-17T14:30:01.689Z,53.50
2023-04-17T14:32:28.810Z,53.60
2023-04-17T14:34:55.772Z,53.50
2023-04-17T14:37:22.955Z,53.80
2023-04-17T14:39:50.080Z,53.30
2023-04-17T14:42:17.188Z,53.70
2023-04-17T14:44:44.174Z,53.30
2023-04-17T14:47:13.168Z,52.70
2023-04-17T14:49:40.259Z,53.90
2023-04-17T14:52:07.360Z,53.60
2023-04-17T14:54:34.515Z,53.10
2023-04-17T14:57:02.289Z,52.90
2023-04-17T14:59:29.413Z,52.40
2023-04-17T15:01:56.668Z,52.30
2023-04-17T15:04:23.919Z,52.30
2023-04-17T15:06:51.045Z,53.20
2023-04-17T15:09:17.980Z,53.50
2023-04-17T15:11:46.902Z,53.10
2023-04-17T15:14:13.968Z,52.50
2023-04-17T15:16:41.216Z,53.20
2023-04-17T15:19:08.402Z,52.90
2023-04-17T15:21:35.372Z,52.70
2023-04-17T15:24:02.279Z,51.60
2023-04-17T15:26:29.230Z,51.60
2023-04-17T15:28:56.123Z,51.00
2023-04-17T15:31:23.233Z,51.50
2023-04-17T15:33:50.197Z,51.20
2023-04-17T15:36:17.245Z,50.50
2023-04-17T15:38:44.311Z,51.60
2023-04-17T15:41:11.491Z,51.00
2023-04-17T15:43:39.047Z,50.80
2023-04-17T15:46:06.324Z,51.50
2023-04-17T15:48:33.439Z,51.70
2023-04-17T15:51:03.336Z,51.20
2023-04-17T15:53:30.310Z,51.00
2023-04-17T15:55:57.385Z,52.30
2023-04-17T15:58:24.444Z,52.10
2023-04-17T16:00:51.406Z,50.70
2023-04-17T16:03:18.450Z,51.50
2023-04-17T16:05:45.635Z,50.70
2023-04-17T16:08:14.593Z,50.50
2023-04-17T16:10:41.794Z,50.40
2023-04-17T16:13:08.750Z,52.30
2023-04-17T16:15:35.865Z,51.40
2023-04-17T16:18:02.889Z,51.80
2023-04-17T16:20:30.697Z,50.20
2023-04-17T16:22:57.793Z,50.90
2023-04-17T16:25:24.842Z,50.60
2023-04-17T16:27:51.748Z,51.90
2023-04-17T16:30:18.699Z,51.30
2023-04-17T16:32:48.623Z,50.00
2023-04-17T16:35:15.935Z,51.70
2023-04-17T16:37:42.888Z,49.60
2023-04-17T16:40:14.467Z,49.80
2023-04-17T16:42:43.817Z,50.00
2023-04-17T16:45:10.808Z,51.10
2023-04-17T16:47:38.942Z,49.50
2023-04-17T16:50:08.015Z,49.90
2023-04-17T16:52:36.231Z,49.80
2023-04-17T16:55:03.314Z,50.70
2023-04-17T16:57:31.109Z,50.50
2023-04-17T16:59:58.410Z,50.50
2023-04-17T17:02:25.460Z,49.90
2023-04-17T17:04:52.472Z,49.40
2023-04-17T17:07:19.440Z,49.20
2023-04-17T17:09:46.481Z,48.70
2023-04-17T17:12:13.392Z,48.20
2023-04-17T17:14:40.663Z,49.40
2023-04-17T17:17:07.586Z,48.70
2023-04-17T17:19:34.622Z,48.70
2023-04-17T17:22:01.879Z,49.40
2023-04-17T17:24:29.060Z,48.80
2023-04-17T17:26:57.072Z,49.50
2023-04-17T17:29:23.970Z,48.00
2023-04-17T17:31:51.145Z,48.20
2023-04-17T17:34:25.954Z,48.70
2023-04-17T17:36:53.450Z,47.70
2023-04-17T17:39:22.005Z,48.40
2023-04-17T17:41:50.554Z,48.90
2023-04-17T17:44:18.793Z,48.60
2023-04-17T17:46:45.903Z,48.70
2023-04-17T17:49:12.856Z,48.10
2023-04-17T17:51:39.887Z,48.00
2023-04-17T17:54:07.103Z,48.00
2023-04-17T17:56:34.909Z,48.40
2023-04-17T17:59:01.933Z,47.70
2023-04-17T18:01:29.090Z,47.40
2023-04-17T18:03:56.301Z,49.40
2023-04-17T18:06:23.506Z,49.10
2023-04-17T18:08:50.424Z,48.30
2023-04-17T18:11:17.500Z,48.50
2023-04-17T18:13:44.610Z,49.10
2023-04-17T18:16:11.897Z,49.20
2023-04-17T18:18:39.083Z,48.20
2023-04-17T18:21:09.443Z,48.60
2023-04-17T18:23:36.481Z,49.00
2023-04-17T18:26:03.762Z,47.20
2023-04-17T18:28:30.784Z,47.60
2023-04-17T18:30:57.798Z,48.00
2023-04-17T18:33:24.871Z,47.70
2023-04-17T18:35:51.932Z,48.50
2023-04-17T18:38:19.132Z,48.80
2023-04-17T18:40:46.190Z,48.40
2023-04-17T18:43:13.240Z,47.90
2023-04-17T18:45:40.352Z,50.60
2023-04-17T18:48:07.388Z,49.20
2023-04-17T18:50:34.842Z,49.20
2023-04-17T18:53:02.322Z,48.90
2023-04-17T18:55:29.442Z,49.50
2023-04-17T18:57:56.412Z,49.90
2023-04-17T19:00:23.629Z,49.90
2023-04-17T19:02:50.749Z,49.90
2023-04-17T19:05:20.317Z,49.30
2023-04-17T19:07:47.907Z,48.80
2023-04-17T19:10:15.076Z,48.60
2023-04-17T19:12:43.156Z,49.30
2023-04-17T19:15:11.505Z,49.70
2023-04-17T19:17:39.031Z,50.10
2023-04-17T19:20:06.722Z,49.80
2023-04-17T19:22:33.732Z,49.80
2023-04-17T19:25:00.670Z,49.70
2023-04-17T19:27:27.679Z,49.30
2023-04-17T19:29:54.581Z,49.30
2023-04-17T19:32:21.607Z,49.70
2023-04-17T19:34:48.646Z,49.80
2023-04-17T19:37:15.607Z,50.10
2023-04-17T19:39:42.611Z,50.40
2023-04-17T19:42:09.548Z,50.70
2023-04-17T19:44:36.519Z,51.30
2023-04-17T19:47:04.633Z,51.20
2023-04-17T19:49:31.605Z,51.20
2023-04-17T19:52:00.869Z,51.20
2023-04-17T19:54:27.928Z,50.70
2023-04-17T19:56:57.362Z,51.00
2023-04-17T19:59:24.647Z,50.80
2023-04-17T20:01:51.782Z,50.20
2023-04-17T20:04:18.929Z,50.10
2023-04-17T20:06:46.228Z,50.30
2023-04-17T20:09:14.866Z,50.50
2023-04-17T20:11:42.454Z,50.80
2023-04-17T20:14:09.606Z,50.80
2023-04-17T20:16:36.783Z,51.10
2023-04-17T20:19:03.803Z,51.10
2023-04-17T20:21:30.754Z,50.80
2023-04-17T20:23:59.381Z,51.30
2023-04-17T20:26:26.491Z,51.50
2023-04-17T20:28:54.835Z,51.10
2023-04-17T20:31:22.236Z,51.10
2023-04-17T20:33:49.280Z,51.30
2023-04-17T20:36:16.269Z,51.30
2023-04-17T20:38:43.447Z,50.70
2023-04-17T20:41:10.518Z,50.40
2023-04-17T20:43:37.719Z,51.00
2023-04-17T20:46:06.280Z,50.50
2023-04-17T20:48:33.394Z,50.00
2023-04-17T20:51:05.596Z,50.10
2023-04-17T20:53:32.966Z,49.70
2023-04-17T20:56:00.137Z,49.10
2023-04-17T20:58:27.137Z,52.00
2023-04-17T21:01:01.419Z,50.90
2023-04-17T21:03:33.549Z,52.50
2023-04-17T21:06:01.211Z,52.70
2023-04-17T21:08:28.233Z,52.90
2023-04-17T21:10:55.323Z,53.40
2023-04-17T21:13:23.094Z,53.20
2023-04-17T21:15:50.220Z,54.00
2023-04-17T21:18:17.162Z,54.20
2023-04-17T21:20:44.212Z,54.70
2023-04-17T21:23:11.414Z,54.30
2023-04-17T21:25:38.365Z,55.10
2023-04-17T21:28:05.622Z,55.00
2023-04-17T21:30:32.568Z,54.50
2023-04-17T21:32:59.499Z,55.20
2023-04-17T21:35:27.152Z,55.20
2023-04-17T21:37:54.385Z,55.60
2023-04-17T21:40:21.469Z,55.60
2023-04-17T21:42:48.381Z,56.50
2023-04-17T21:45:16.268Z,55.90
2023-04-17T21:47:43.315Z,56.10
2023-04-17T21:50:10.906Z,56.60
2023-04-17T21:52:37.963Z,57.40
2023-04-17T21:55:07.647Z,56.70
2023-04-17T21:57:35.418Z,56.90
2023-04-17T22:00:05.253Z,57.60
2023-04-17T22:02:33.655Z,57.20
2023-04-17T22:05:00.643Z,56.80
2023-04-17T22:07:27.558Z,57.60
2023-04-17T22:09:54.494Z,57.60
2023-04-17T22:12:21.487Z,57.00
2023-04-17T22:14:48.947Z,57.90
2023-04-17T22:17:16.002Z,57.60
2023-04-17T22:19:42.928Z,56.90
2023-04-17T22:22:09.872Z,57.50
2023-04-17T22:24:36.915Z,57.00
2023-04-17T22:27:03.885Z,57.30
2023-04-17T22:29:30.938Z,58.00
2023-04-17T22:31:57.755Z,58.50
2023-04-17T22:34:24.687Z,58.20
2023-04-17T22:36:51.471Z,57.50
2023-04-17T22:39:18.489Z,58.20
2023-04-17T22:41:45.365Z,57.70
2023-04-17T22:44:12.464Z,58.20
2023-04-17T22:46:39.535Z,57.70
2023-04-17T22:49:06.582Z,57.50
2023-04-17T22:51:33.524Z,57.90
2023-04-17T22:54:08.524Z,57.70
2023-04-17T22:56:42.661Z,57.20
2023-04-17T22:59:11.867Z,57.30
2023-04-17T23:01:38.798Z,58.20
2023-04-17T23:04:05.713Z,58.20
2023-04-17T23:06:32.579Z,57.90
2023-04-17T23:08:59.406Z,58.00
2023-04-17T23:11:26.273Z,58.40
2023-04-17T23:13:53.205Z,58.00
2023-04-17T23:16:20.360Z,58.10
2023-04-17T23:18:47.337Z,58.10
2023-04-17T23:21:14.475Z,58.10
2023-04-17T23:23:41.881Z,58.20
2023-04-17T23:26:09.028Z,58.30
2023-04-17T23:28:35.931Z,57.80
2023-04-17T23:31:06.744Z,57.80
2023-04-17T23:33:33.816Z,57.20
2023-04-17T23:36:00.908Z,57.60
2023-04-17T23:38:28.084Z,57.90
2023-04-17T23:40:55.242Z,57.90
2023-04-17T23:43:22.213Z,57.80
2023-04-17T23:45:49.241Z,58.00
2023-04-17T23:48:16.263Z,57.60
2023-04-17T23:50:43.875Z,58.00
2023-04-17T23:53:11.004Z,58.60
2023-04-17T23:55:38.158Z,58.10
2023-04-17T23:58:05.133Z,58.50
